createdAt,value
2022-11-24T00:01:29.419Z,7.50
2022-11-24T00:04:05.522Z,7.50
2022-11-24T00:06:35.700Z,7.50
2022-11-24T00:09:04.399Z,7.50
2022-11-24T00:11:35.056Z,7.50
2022-11-24T00:14:03.249Z,7.60
2022-11-24T00:16:33.300Z,7.60
2022-11-24T00:19:03.190Z,7.60
2022-11-24T00:21:32.026Z,7.70
2022-11-24T00:23:59.741Z,7.70
2022-11-24T00:26:30.713Z,7.70
2022-11-24T00:29:01.063Z,7.80
2022-11-24T00:31:34.198Z,7.70
2022-11-24T00:34:04.815Z,7.70
2022-11-24T00:36:34.738Z,7.80
2022-11-24T00:39:22.044Z,7.80
2022-11-24T00:41:49.377Z,7.80
2022-11-24T00:44:16.475Z,7.90
2022-11-24T00:46:43.796Z,7.80
2022-11-24T00:49:10.967Z,7.80
2022-11-24T00:51:39.072Z,7.80
2022-11-24T00:54:06.710Z,7.80
2022-11-24T00:56:34.894Z,7.80
2022-11-24T00:59:02.166Z,7.80
2022-11-24T01:01:31.271Z,7.80
2022-11-24T01:04:01.950Z,7.80
2022-11-24T01:06:29.760Z,7.80
2022-11-24T01:08:57.428Z,7.80
2022-11-24T01:11:53.600Z,7.80
2022-11-24T01:14:22.084Z,7.80
2022-11-24T01:16:49.400Z,7.80
2022-11-24T01:19:16.356Z,7.80
2022-11-24T01:21:43.318Z,7.80
2022-11-24T01:24:10.793Z,7.80
2022-11-24T01:26:37.996Z,7.70
2022-11-24T01:29:04.971Z,7.70
2022-11-24T01:31:32.971Z,7.70
2022-11-24T01:33:59.964Z,7.80
2022-11-24T01:36:27.012Z,7.80
2022-11-24T01:38:53.983Z,7.80
2022-11-24T01:41:22.801Z,7.80
2022-11-24T01:43:50.360Z,7.90
2022-11-24T01:46:24.625Z,7.90
2022-11-24T01:49:12.224Z,7.80
2022-11-24T01:51:45.996Z,7.80
2022-11-24T01:54:22.937Z,7.90
2022-11-24T01:56:51.499Z,7.80
2022-11-24T01:59:18.986Z,7.80
2022-11-24T02:02:27.404Z,7.90
2022-11-24T02:04:54.597Z,7.90
2022-11-24T02:07:21.569Z,7.90
2022-11-24T02:09:54.379Z,8.00
2022-11-24T02:12:22.684Z,7.90
2022-11-24T02:14:49.798Z,7.90
2022-11-24T02:17:16.729Z,7.90
2022-11-24T02:19:50.330Z,7.90
2022-11-24T02:22:46.036Z,7.90
2022-11-24T02:25:40.838Z,7.90
2022-11-24T02:28:10.744Z,7.90
2022-11-24T02:30:37.722Z,7.90
2022-11-24T02:33:04.661Z,7.80
2022-11-24T02:35:31.803Z,7.80
2022-11-24T02:37:58.773Z,7.80
2022-11-24T02:40:27.085Z,7.80
2022-11-24T02:42:55.738Z,7.70
2022-11-24T02:45:23.075Z,7.70
2022-11-24T02:47:50.015Z,7.70
2022-11-24T02:50:29.031Z,7.60
2022-11-24T02:52:55.968Z,7.70
2022-11-24T02:55:23.772Z,7.60
2022-11-24T02:57:51.013Z,7.70
2022-11-24T03:00:18.629Z,7.60
2022-11-24T03:02:45.740Z,7.70
2022-11-24T03:05:12.816Z,7.60
2022-11-24T03:07:39.857Z,7.60
2022-11-24T03:10:07.199Z,7.60
2022-11-24T03:12:34.150Z,7.50
2022-11-24T03:15:01.163Z,7.50
2022-11-24T03:17:28.118Z,7.50
2022-11-24T03:19:56.436Z,7.50
2022-11-24T03:22:25.971Z,7.50
2022-11-24T03:24:53.429Z,7.50
2022-11-24T03:27:21.109Z,7.50
2022-11-24T03:29:48.084Z,7.50
2022-11-24T03:32:15.038Z,7.50
2022-11-24T03:34:42.011Z,7.50
2022-11-24T03:37:08.929Z,7.50
2022-11-24T03:39:35.904Z,7.50
2022-11-24T03:42:02.877Z,7.50
2022-11-24T03:44:30.248Z,7.50
2022-11-24T03:46:57.229Z,7.50
2022-11-24T03:49:24.243Z,7.60
2022-11-24T03:51:51.400Z,7.50
2022-11-24T03:54:18.389Z,7.60
2022-11-24T03:56:45.349Z,7.60
2022-11-24T03:59:12.381Z,7.50
2022-11-24T04:01:39.413Z,7.60
2022-11-24T04:04:06.447Z,7.50
2022-11-24T04:06:33.493Z,7.60
2022-11-24T04:09:00.748Z,7.50
2022-11-24T04:11:46.396Z,7.50
2022-11-24T04:14:13.875Z,7.50
2022-11-24T04:16:41.093Z,7.50
2022-11-24T04:19:08.023Z,7.50
2022-11-24T04:21:35.014Z,7.50
2022-11-24T04:24:01.964Z,7.50
2022-11-24T04:26:28.931Z,7.50
2022-11-24T04:28:55.860Z,7.50
2022-11-24T04:31:22.887Z,7.50
2022-11-24T04:33:49.928Z,7.50
2022-11-24T04:36:16.859Z,7.50
2022-11-24T04:39:19.806Z,7.50
2022-11-24T04:41:31.081Z,7.50
2022-11-24T04:43:58.014Z,7.50
2022-11-24T04:46:25.017Z,7.50
2022-11-24T04:48:51.994Z,7.50
2022-11-24T04:51:18.955Z,7.50
2022-11-24T04:53:45.941Z,7.50
2022-11-24T04:56:12.943Z,7.50
2022-11-24T04:58:39.870Z,7.50
2022-11-24T05:01:08.485Z,7.60
2022-11-24T05:03:36.663Z,7.60
2022-11-24T05:06:03.827Z,7.60
2022-11-24T05:08:30.705Z,7.60
2022-11-24T05:10:57.659Z,7.60
2022-11-24T05:13:24.584Z,7.60
2022-11-24T05:15:51.527Z,7.60
2022-11-24T05:18:18.574Z,7.60
2022-11-24T05:20:45.608Z,7.70
2022-11-24T05:23:12.671Z,7.70
2022-11-24T05:25:41.364Z,7.70
2022-11-24T05:28:10.647Z,7.70
2022-11-24T05:30:39.161Z,7.70
2022-11-24T05:33:09.656Z,7.70
2022-11-24T05:35:36.670Z,7.80
2022-11-24T05:38:04.256Z,7.70
2022-11-24T05:40:31.657Z,7.70
2022-11-24T05:42:58.663Z,7.70
2022-11-24T05:45:25.658Z,7.70
2022-11-24T05:47:53.327Z,7.80
2022-11-24T05:50:21.817Z,7.80
2022-11-24T05:52:49.720Z,7.80
2022-11-24T05:55:16.730Z,7.90
2022-11-24T05:57:44.050Z,7.80
2022-11-24T06:00:11.458Z,7.90
2022-11-24T06:02:38.464Z,7.90
2022-11-24T06:05:05.499Z,7.90
2022-11-24T06:09:59.880Z,8.00
2022-11-24T06:12:26.779Z,7.90
2022-11-24T06:14:53.740Z,7.90
2022-11-24T06:17:21.093Z,7.90
2022-11-24T06:19:50.565Z,7.90
2022-11-24T06:22:19.685Z,7.90
2022-11-24T06:24:47.257Z,7.90
2022-11-24T06:27:14.487Z,7.90
2022-11-24T06:29:41.388Z,7.90
2022-11-24T06:32:08.396Z,7.90
2022-11-24T06:34:35.823Z,7.90
2022-11-24T06:37:03.000Z,7.80
2022-11-24T06:39:30.077Z,7.80
2022-11-24T06:41:57.014Z,7.80
2022-11-24T06:44:23.993Z,7.80
2022-11-24T06:46:53.855Z,7.80
2022-11-24T06:49:21.219Z,7.80
2022-11-24T06:51:48.178Z,7.70
2022-11-24T06:54:17.190Z,7.70
2022-11-24T06:57:45.107Z,7.70
2022-11-24T07:01:14.986Z,7.70
2022-11-24T07:03:43.598Z,7.70
2022-11-24T07:06:10.508Z,7.60
2022-11-24T07:08:37.477Z,7.60
2022-11-24T07:11:08.581Z,7.50
2022-11-24T07:13:35.717Z,7.50
2022-11-24T07:16:21.063Z,7.50
2022-11-24T07:18:51.278Z,7.40
2022-11-24T07:21:19.894Z,7.40
2022-11-24T07:23:55.414Z,7.40
2022-11-24T07:26:23.291Z,7.40
2022-11-24T07:28:53.629Z,7.30
2022-11-24T07:31:25.131Z,7.30
2022-11-24T07:33:55.125Z,7.30
2022-11-24T07:36:32.666Z,7.20
2022-11-24T07:39:00.875Z,7.20
2022-11-24T07:41:29.070Z,7.20
2022-11-24T07:43:56.865Z,7.20
2022-11-24T07:46:23.954Z,7.20
2022-11-24T07:48:51.556Z,7.10
2022-11-24T07:51:18.622Z,7.10
2022-11-24T07:53:46.859Z,7.10
2022-11-24T07:56:16.768Z,7.20
2022-11-24T07:58:49.767Z,7.20
2022-11-24T08:01:20.223Z,7.20
2022-11-24T08:03:47.371Z,7.30
2022-11-24T08:06:38.440Z,7.20
2022-11-24T08:09:02.885Z,7.20
2022-11-24T08:11:31.608Z,7.30
2022-11-24T08:13:58.877Z,7.30
2022-11-24T08:16:25.858Z,7.20
2022-11-24T08:18:54.130Z,7.30
2022-11-24T08:21:23.345Z,7.20
2022-11-24T08:23:59.278Z,7.20
2022-11-24T08:26:26.366Z,7.30
2022-11-24T08:28:57.795Z,7.30
2022-11-24T08:31:27.400Z,7.20
2022-11-24T08:33:56.134Z,7.20
2022-11-24T08:36:23.276Z,7.20
2022-11-24T08:39:01.712Z,7.30
2022-11-24T08:41:31.488Z,7.40
2022-11-24T08:43:58.794Z,7.40
2022-11-24T08:46:25.833Z,7.50
2022-11-24T08:48:54.337Z,7.50
2022-11-24T08:51:25.243Z,7.50
2022-11-24T08:54:00.425Z,7.50
2022-11-24T08:56:30.813Z,7.50
2022-11-24T08:59:00.808Z,7.50
2022-11-24T09:01:28.053Z,7.60
2022-11-24T09:03:55.379Z,7.70
2022-11-24T09:06:24.997Z,7.70
2022-11-24T09:08:53.806Z,7.80
2022-11-24T09:11:24.903Z,7.80
2022-11-24T09:13:51.983Z,7.90
2022-11-24T09:16:21.212Z,7.90
2022-11-24T09:18:48.289Z,8.00
2022-11-24T09:21:18.310Z,8.00
2022-11-24T09:23:49.718Z,8.20
2022-11-24T09:26:32.836Z,8.20
2022-11-24T09:29:08.667Z,8.30
2022-11-24T09:31:41.381Z,8.50
2022-11-24T09:34:19.899Z,8.50
2022-11-24T09:37:06.933Z,8.40
2022-11-24T09:39:33.954Z,8.50
2022-11-24T09:42:08.136Z,8.50
2022-11-24T09:44:41.140Z,8.60
2022-11-24T09:47:37.070Z,8.70
2022-11-24T09:50:15.028Z,8.90
2022-11-24T09:53:06.406Z,8.80
2022-11-24T09:55:41.836Z,9.00
2022-11-24T09:58:27.627Z,9.10
2022-11-24T10:00:54.638Z,9.00
2022-11-24T10:03:33.232Z,9.10
2022-11-24T10:06:01.140Z,9.20
2022-11-24T10:08:45.737Z,9.30
2022-11-24T10:11:19.474Z,9.30
2022-11-24T10:14:09.370Z,9.40
2022-11-24T10:17:00.296Z,9.50
2022-11-24T10:20:04.172Z,9.50
2022-11-24T10:23:02.190Z,9.50
2022-11-24T10:25:50.450Z,9.70
2022-11-24T10:28:18.787Z,9.60
2022-11-24T10:30:46.398Z,9.70
2022-11-24T10:33:28.721Z,9.60
2022-11-24T10:36:16.008Z,9.70
2022-11-24T10:38:57.066Z,9.70
2022-11-24T10:41:37.143Z,9.90
2022-11-24T10:44:06.550Z,10.00
2022-11-24T10:46:39.191Z,10.20
2022-11-24T10:49:06.643Z,10.00
2022-11-24T10:51:44.574Z,9.80
2022-11-24T10:54:19.921Z,9.80
2022-11-24T10:56:48.004Z,9.70
2022-11-24T10:59:24.127Z,9.80
2022-11-24T11:01:52.133Z,9.90
2022-11-24T11:04:22.387Z,10.00
2022-11-24T11:06:51.436Z,10.00
2022-11-24T11:09:22.270Z,10.00
2022-11-24T11:11:49.846Z,10.10
2022-11-24T11:14:31.582Z,10.00
2022-11-24T11:16:58.906Z,10.10
2022-11-24T11:19:49.381Z,10.10
2022-11-24T11:22:22.995Z,10.20
2022-11-24T11:24:49.974Z,10.20
2022-11-24T11:27:24.727Z,10.20
2022-11-24T11:35:29.125Z,10.20
2022-11-24T11:37:59.153Z,10.20
2022-11-24T11:40:28.097Z,10.20
2022-11-24T11:43:03.637Z,10.20
2022-11-24T11:45:38.463Z,10.20
2022-11-24T11:48:28.209Z,10.20
2022-11-24T11:51:22.777Z,10.20
2022-11-24T11:53:53.314Z,10.30
2022-11-24T11:56:27.171Z,10.30
2022-11-24T11:59:31.715Z,10.30
2022-11-24T12:02:23.662Z,10.30
2022-11-24T12:04:58.805Z,10.40
2022-11-24T12:07:57.172Z,10.40
2022-11-24T12:10:44.401Z,10.40
2022-11-24T12:13:30.098Z,10.30
2022-11-24T12:16:00.301Z,10.30
2022-11-24T12:18:59.023Z,10.30
2022-11-24T12:21:35.125Z,10.30
2022-11-24T12:24:14.120Z,10.30
2022-11-24T12:27:10.254Z,10.30
2022-11-24T12:29:59.075Z,10.40
2022-11-24T12:32:35.092Z,10.40
2022-11-24T12:35:30.486Z,10.40
2022-11-24T12:38:25.170Z,10.40
2022-11-24T12:41:41.293Z,10.50
2022-11-24T12:44:36.209Z,10.50
2022-11-24T12:47:27.017Z,10.50
2022-11-24T12:50:07.360Z,10.50
2022-11-24T12:52:37.861Z,10.50
2022-11-24T12:55:05.262Z,10.50
2022-11-24T12:57:56.218Z,10.50
2022-11-24T13:00:32.165Z,10.50
2022-11-24T13:03:27.177Z,10.50
2022-11-24T13:05:59.048Z,10.60
2022-11-24T13:08:29.120Z,10.50
2022-11-24T13:11:19.235Z,10.50
2022-11-24T13:14:06.411Z,10.60
2022-11-24T13:16:44.316Z,10.60
2022-11-24T13:19:29.617Z,10.50
2022-11-24T13:22:06.568Z,10.50
2022-11-24T13:24:39.461Z,10.50
2022-11-24T13:27:15.985Z,10.50
2022-11-24T13:29:47.274Z,10.50
2022-11-24T13:32:22.582Z,10.70
2022-11-24T13:34:57.566Z,10.60
2022-11-24T13:37:34.269Z,10.60
2022-11-24T13:40:11.526Z,10.60
2022-11-24T13:42:58.925Z,10.60
2022-11-24T13:45:49.857Z,10.60
2022-11-24T13:48:20.375Z,10.60
2022-11-24T13:50:55.776Z,10.60
2022-11-24T13:53:36.450Z,10.60
2022-11-24T13:56:20.073Z,10.60
2022-11-24T13:59:06.343Z,10.60
2022-11-24T14:01:34.897Z,10.60
2022-11-24T14:04:30.514Z,10.50
2022-11-24T14:07:07.284Z,10.60
2022-11-24T14:09:36.656Z,10.60
2022-11-24T14:12:08.238Z,10.60
2022-11-24T14:14:37.564Z,10.50
2022-11-24T14:17:27.155Z,10.50
2022-11-24T14:19:56.017Z,10.40
2022-11-24T14:22:35.185Z,10.40
2022-11-24T14:25:06.242Z,10.40
2022-11-24T14:27:36.255Z,10.40
2022-11-24T14:30:15.542Z,10.20
2022-11-24T14:33:00.430Z,10.30
2022-11-24T14:35:32.154Z,10.20
2022-11-24T14:38:03.497Z,10.20
2022-11-24T14:40:47.394Z,10.10
2022-11-24T14:43:23.728Z,10.10
2022-11-24T14:45:55.771Z,10.00
2022-11-24T14:48:31.793Z,10.00
2022-11-24T14:51:32.006Z,10.00
2022-11-24T14:54:01.098Z,9.90
2022-11-24T14:56:40.096Z,9.90
2022-11-24T14:59:30.802Z,9.80
2022-11-24T15:02:00.059Z,9.80
2022-11-24T15:07:29.268Z,9.70
2022-11-24T15:09:58.265Z,9.60
2022-11-24T15:12:41.325Z,9.60
2022-11-24T15:15:14.109Z,9.50
2022-11-24T15:17:47.353Z,9.50
2022-11-24T15:20:32.179Z,9.40
2022-11-24T15:23:17.789Z,9.30
2022-11-24T15:25:44.780Z,9.20
2022-11-24T15:28:12.119Z,9.30
2022-11-24T15:30:39.079Z,9.20
2022-11-24T15:33:16.861Z,9.20
2022-11-24T15:35:44.529Z,9.10
2022-11-24T15:38:11.684Z,9.00
2022-11-24T15:40:39.205Z,9.00
2022-11-24T15:43:16.994Z,9.00
2022-11-24T15:45:44.245Z,9.00
2022-11-24T15:48:16.301Z,8.90
2022-11-24T15:50:45.639Z,8.90
2022-11-24T15:53:48.653Z,8.90
2022-11-24T15:56:23.476Z,8.70
2022-11-24T15:58:51.097Z,8.80
2022-11-24T16:01:18.205Z,8.70
2022-11-24T16:03:47.505Z,8.70
2022-11-24T16:06:23.697Z,8.70
2022-11-24T16:08:52.358Z,8.60
2022-11-24T16:11:21.302Z,8.60
2022-11-24T16:13:52.447Z,8.60
2022-11-24T16:16:21.544Z,8.60
2022-11-24T16:18:48.517Z,8.60
2022-11-24T16:21:15.581Z,8.50
2022-11-24T16:23:42.976Z,8.50
2022-11-24T16:26:09.891Z,8.50
2022-11-24T16:28:36.836Z,8.40
2022-11-24T16:31:04.095Z,8.40
2022-11-24T16:33:34.976Z,8.30
2022-11-24T16:36:01.941Z,8.40
2022-11-24T16:38:30.281Z,8.40
2022-11-24T16:40:57.248Z,8.40
2022-11-24T16:43:27.344Z,8.40
2022-11-24T16:46:17.611Z,8.30
2022-11-24T16:48:45.624Z,8.30
2022-11-24T16:51:13.047Z,8.40
2022-11-24T16:53:40.482Z,8.40
2022-11-24T16:56:08.430Z,8.40
2022-11-24T16:58:39.947Z,8.40
2022-11-24T17:01:07.967Z,8.40
2022-11-24T17:03:37.469Z,8.40
2022-11-24T17:06:06.483Z,8.50
2022-11-24T17:08:37.968Z,8.50
2022-11-24T17:11:21.041Z,8.40
2022-11-24T17:13:49.378Z,8.40
2022-11-24T17:16:21.120Z,8.40
2022-11-24T17:18:48.166Z,8.30
2022-11-24T17:21:17.231Z,8.40
2022-11-24T17:23:44.454Z,8.40
2022-11-24T17:26:14.131Z,8.30
2022-11-24T17:28:41.476Z,8.30
2022-11-24T17:31:24.436Z,8.30
2022-11-24T17:33:53.048Z,8.20
2022-11-24T17:36:20.681Z,8.20
2022-11-24T17:38:49.780Z,8.20
2022-11-24T17:41:17.503Z,8.20
2022-11-24T17:43:45.765Z,8.20
2022-11-24T17:46:12.801Z,8.20
2022-11-24T17:48:39.759Z,8.30
2022-11-24T17:51:08.296Z,8.30
2022-11-24T17:53:39.281Z,8.30
2022-11-24T17:56:12.676Z,8.20
2022-11-24T17:58:42.871Z,8.30
2022-11-24T18:01:11.281Z,8.30
2022-11-24T18:03:41.721Z,8.30
2022-11-24T18:06:16.384Z,8.30
2022-11-24T18:08:45.311Z,8.30
2022-11-24T18:11:17.234Z,8.40
2022-11-24T18:16:32.503Z,8.40
2022-11-24T18:19:10.164Z,8.40
2022-11-24T18:21:39.263Z,8.30
2022-11-24T18:24:07.355Z,8.40
2022-11-24T18:26:34.298Z,8.30
2022-11-24T18:29:01.186Z,8.30
2022-11-24T18:31:29.826Z,8.30
2022-11-24T18:33:56.836Z,8.40
2022-11-24T18:36:29.926Z,8.40
2022-11-24T18:39:00.842Z,8.40
2022-11-24T18:41:27.737Z,8.40
2022-11-24T18:43:54.643Z,8.40
2022-11-24T18:46:21.773Z,8.40
2022-11-24T18:48:49.653Z,8.30
2022-11-24T18:51:16.619Z,8.30
2022-11-24T18:53:45.157Z,8.30
2022-11-24T18:56:16.547Z,8.30
2022-11-24T18:58:44.048Z,8.30
2022-11-24T19:01:19.786Z,8.30
2022-11-24T19:03:51.893Z,8.30
2022-11-24T19:06:24.488Z,8.30
2022-11-24T19:08:53.727Z,8.30
2022-11-24T19:11:25.516Z,8.30
2022-11-24T19:13:52.431Z,8.20
2022-11-24T19:16:20.126Z,8.30
2022-11-24T19:18:53.631Z,8.20
2022-11-24T19:21:21.602Z,8.30
2022-11-24T19:23:48.664Z,8.20
2022-11-24T19:26:15.583Z,8.20
2022-11-24T19:28:42.747Z,8.20
2022-11-24T19:31:12.758Z,8.20
2022-11-24T19:33:40.197Z,8.20
2022-11-24T19:36:18.239Z,8.20
2022-11-24T19:38:57.271Z,8.10
2022-11-24T19:41:29.884Z,8.20
2022-11-24T19:43:58.032Z,8.10
2022-11-24T19:46:27.284Z,8.10
2022-11-24T19:48:55.514Z,8.10
2022-11-24T19:51:25.449Z,8.10
2022-11-24T19:53:55.641Z,8.00
2022-11-24T19:56:27.259Z,8.00
2022-11-24T19:58:55.204Z,8.00
2022-11-24T20:01:27.571Z,8.00
2022-11-24T20:03:59.059Z,8.00
2022-11-24T20:06:32.682Z,7.90
2022-11-24T20:09:00.611Z,8.00
2022-11-24T20:11:28.228Z,8.00
2022-11-24T20:13:55.331Z,7.90
2022-11-24T20:16:26.604Z,7.90
2022-11-24T20:18:58.783Z,7.90
2022-11-24T20:21:33.727Z,7.90
2022-11-24T20:24:07.887Z,7.90
2022-11-24T20:26:39.435Z,7.90
2022-11-24T20:29:06.845Z,8.00
2022-11-24T20:31:35.457Z,8.00
2022-11-24T20:34:04.073Z,7.90
2022-11-24T20:36:32.137Z,7.90
2022-11-24T20:39:00.618Z,7.90
2022-11-24T20:41:32.250Z,7.90
2022-11-24T20:44:05.009Z,7.90
2022-11-24T20:46:33.630Z,7.90
2022-11-24T20:49:00.753Z,7.90
2022-11-24T20:51:30.118Z,7.80
2022-11-24T20:54:00.232Z,7.80
2022-11-24T20:56:29.072Z,7.80
2022-11-24T20:58:56.285Z,7.90
2022-11-24T21:01:25.352Z,7.90
2022-11-24T21:03:54.634Z,7.90
2022-11-24T21:06:21.935Z,7.90
2022-11-24T21:08:51.814Z,7.90
2022-11-24T21:11:19.187Z,7.90
2022-11-24T21:13:47.550Z,7.90
2022-11-24T21:16:40.882Z,7.90
2022-11-24T21:19:11.380Z,7.90
2022-11-24T21:21:38.680Z,8.00
2022-11-24T21:24:16.308Z,8.00
2022-11-24T21:26:44.399Z,8.00
2022-11-24T21:29:11.742Z,8.00
2022-11-24T21:31:38.821Z,8.00
2022-11-24T21:34:06.737Z,8.10
2022-11-24T21:36:35.165Z,8.10
2022-11-24T21:39:02.616Z,8.10
2022-11-24T21:41:31.533Z,8.10
2022-11-24T21:43:58.763Z,8.20
2022-11-24T21:46:25.680Z,8.30
2022-11-24T21:48:52.561Z,8.30
2022-11-24T21:51:20.960Z,8.30
2022-11-24T21:53:47.996Z,8.30
2022-11-24T21:56:20.897Z,8.40
2022-11-24T21:58:58.004Z,8.40
2022-11-24T22:01:27.382Z,8.40
2022-11-24T22:03:54.436Z,8.50
2022-11-24T22:06:21.504Z,8.50
2022-11-24T22:08:48.851Z,8.50
2022-11-24T22:11:18.490Z,8.50
2022-11-24T22:13:45.685Z,8.50
2022-11-24T22:16:14.619Z,8.50
2022-11-24T22:18:43.182Z,8.50
2022-11-24T22:21:23.814Z,8.50
2022-11-24T22:23:52.572Z,8.50
2022-11-24T22:26:21.292Z,8.50
2022-11-24T22:28:48.242Z,8.50
2022-11-24T22:31:23.052Z,8.50
2022-11-24T22:33:53.275Z,8.50
2022-11-24T22:36:21.650Z,8.50
2022-11-24T22:38:56.203Z,8.50
2022-11-24T22:41:23.502Z,8.50
2022-11-24T22:43:51.201Z,8.50
2022-11-24T22:46:22.772Z,8.60
2022-11-24T22:48:52.956Z,8.70
2022-11-24T22:51:27.199Z,8.60
2022-11-24T22:53:58.747Z,8.60
2022-11-24T22:56:27.920Z,8.60
2022-11-24T22:58:54.877Z,8.70
2022-11-24T23:01:26.360Z,8.70
2022-11-24T23:03:54.514Z,8.70
2022-11-24T23:06:23.782Z,8.70
2022-11-24T23:08:51.570Z,8.80
2022-11-24T23:11:36.261Z,8.70
2022-11-24T23:14:04.591Z,8.80
2022-11-24T23:16:31.547Z,8.70
2022-11-24T23:18:58.803Z,8.80
2022-11-24T23:21:30.684Z,8.70
2022-11-24T23:23:59.834Z,8.70
2022-11-24T23:26:34.855Z,8.80
2022-11-24T23:29:02.047Z,8.80
2022-11-24T23:31:29.330Z,8.80
2022-11-24T23:34:01.353Z,8.80
2022-11-24T23:36:28.714Z,8.80
2022-11-24T23:38:55.683Z,8.80
2022-11-24T23:41:24.565Z,8.80
2022-11-24T23:43:52.410Z,8.80
2022-11-24T23:46:21.757Z,8.80
2022-11-24T23:48:51.680Z,8.70
2022-11-24T23:51:23.744Z,8.80
2022-11-24T23:53:51.376Z,8.80
2022-11-24T23:56:26.474Z,8.80
2022-11-24T23:58:53.374Z,8.90
